createdAt,value
2023-05-06T00:00:13.109Z,52.76
2023-05-06T00:02:44.642Z,52.82
2023-05-06T00:05:14.098Z,52.56
2023-05-06T00:07:42.572Z,52.53
2023-05-06T00:10:12.884Z,52.76
2023-05-06T00:12:41.451Z,52.65
2023-05-06T00:15:11.056Z,52.45
2023-05-06T00:17:39.821Z,52.69
2023-05-06T00:20:10.490Z,52.70
2023-05-06T00:22:39.026Z,52.44
2023-05-06T00:25:08.130Z,52.72
2023-05-06T00:27:38.838Z,52.67
2023-05-06T00:30:08.622Z,52.82
2023-05-06T00:32:37.145Z,52.39
2023-05-06T00:35:06.736Z,52.46
2023-05-06T00:37:35.472Z,52.78
2023-05-06T00:40:04.189Z,52.78
2023-05-06T00:42:32.607Z,52.53
2023-05-06T00:45:02.382Z,52.82
2023-05-06T00:47:31.097Z,52.48
2023-05-06T00:49:59.662Z,52.62
2023-05-06T00:52:28.064Z,52.36
2023-05-06T00:54:57.119Z,52.76
2023-05-06T00:57:25.716Z,52.30
2023-05-06T00:59:55.361Z,52.29
2023-05-06T01:02:33.226Z,52.43
2023-05-06T01:05:05.706Z,52.66
2023-05-06T01:07:41.404Z,52.55
2023-05-06T01:10:20.409Z,52.57
2023-05-06T01:12:54.091Z,52.73
2023-05-06T01:15:29.891Z,52.59
2023-05-06T01:18:02.320Z,52.55
2023-05-06T01:20:31.865Z,52.62
2023-05-06T01:23:03.249Z,52.41
2023-05-06T01:25:33.915Z,52.48
2023-05-06T01:28:02.386Z,52.34
2023-05-06T01:30:47.350Z,52.47
2023-05-06T01:33:24.738Z,52.68
2023-05-06T01:36:04.315Z,52.40
2023-05-06T01:38:38.777Z,52.60
2023-05-06T01:41:11.263Z,52.61
2023-05-06T01:43:44.037Z,52.76
2023-05-06T01:46:16.886Z,52.62
2023-05-06T01:48:47.250Z,52.26
2023-05-06T01:51:15.711Z,52.57
2023-05-06T01:53:44.171Z,52.51
2023-05-06T01:56:14.455Z,52.74
2023-05-06T01:58:42.965Z,52.62
2023-05-06T02:01:11.436Z,52.48
2023-05-06T02:03:40.958Z,52.58
2023-05-06T02:06:09.419Z,52.59
2023-05-06T02:08:40.354Z,52.36
2023-05-06T02:11:10.554Z,52.33
2023-05-06T02:13:40.941Z,52.55
2023-05-06T02:16:10.911Z,52.52
2023-05-06T02:18:39.956Z,52.71
2023-05-06T02:21:10.509Z,52.61
2023-05-06T02:23:39.026Z,52.37
2023-05-06T02:26:07.542Z,52.42
2023-05-06T02:28:35.986Z,52.60
2023-05-06T02:31:05.853Z,52.28
2023-05-06T02:33:34.301Z,52.50
2023-05-06T02:36:03.085Z,52.35
2023-05-06T02:38:31.591Z,52.59
2023-05-06T02:41:01.702Z,52.62
2023-05-06T02:43:30.186Z,52.29
2023-05-06T02:45:59.537Z,52.50
2023-05-06T02:48:29.543Z,52.36
2023-05-06T02:50:58.736Z,52.38
2023-05-06T02:53:27.186Z,52.29
2023-05-06T02:55:55.729Z,52.43
2023-05-06T02:58:24.501Z,52.18
2023-05-06T03:00:53.029Z,52.60
2023-05-06T03:03:23.209Z,52.60
2023-05-06T03:05:52.935Z,52.48
2023-05-06T03:08:21.386Z,52.56
2023-05-06T03:10:50.256Z,52.64
2023-05-06T03:13:20.672Z,52.61
2023-05-06T03:15:53.009Z,52.70
2023-05-06T03:18:22.249Z,52.36
2023-05-06T03:20:51.353Z,52.37
2023-05-06T03:23:21.703Z,52.32
2023-05-06T03:25:50.425Z,52.27
2023-05-06T03:28:20.378Z,52.56
2023-05-06T03:30:49.375Z,52.61
2023-05-06T03:33:18.187Z,52.36
2023-05-06T03:35:46.739Z,52.25
2023-05-06T03:38:15.184Z,52.67
2023-05-06T03:40:51.522Z,52.60
2023-05-06T03:43:20.041Z,52.31
2023-05-06T03:45:51.952Z,52.43
2023-05-06T03:48:20.592Z,52.29
2023-05-06T03:50:49.949Z,52.28
2023-05-06T03:53:19.286Z,52.25
2023-05-06T03:55:51.230Z,52.30
2023-05-06T03:58:19.696Z,52.20
2023-05-06T04:00:48.608Z,52.62
2023-05-06T04:03:17.128Z,52.57
2023-05-06T04:05:50.846Z,52.34
2023-05-06T04:08:22.770Z,52.48
2023-05-06T04:10:52.582Z,52.42
2023-05-06T04:13:28.774Z,52.36
2023-05-06T04:15:59.855Z,52.24
2023-05-06T04:18:34.863Z,52.15
2023-05-06T04:21:10.612Z,52.16
2023-05-06T04:23:39.522Z,52.53
2023-05-06T04:26:11.077Z,52.30
2023-05-06T04:28:42.158Z,52.36
2023-05-06T04:31:14.579Z,52.25
2023-05-06T04:33:49.374Z,52.63
2023-05-06T04:36:22.390Z,52.29
2023-05-06T04:39:00.057Z,52.48
2023-05-06T04:41:31.088Z,52.33
2023-05-06T04:43:59.771Z,52.30
2023-05-06T04:46:28.435Z,52.38
2023-05-06T04:48:58.277Z,52.54
2023-05-06T04:51:26.909Z,52.34
2023-05-06T04:53:55.791Z,52.44
2023-05-06T04:56:24.238Z,52.27
2023-05-06T04:58:54.099Z,52.35
2023-05-06T05:01:22.639Z,52.43
2023-05-06T05:03:51.721Z,52.39
2023-05-06T05:06:22.340Z,52.62
2023-05-06T05:08:50.960Z,52.42
2023-05-06T05:11:20.125Z,52.37
2023-05-06T05:13:48.574Z,52.22
2023-05-06T05:16:19.070Z,52.18
2023-05-06T05:18:48.447Z,52.48
2023-05-06T05:21:22.014Z,52.58
2023-05-06T05:23:50.677Z,52.30
2023-05-06T05:26:19.154Z,52.60
2023-05-06T05:28:48.888Z,52.58
2023-05-06T05:31:19.143Z,52.33
2023-05-06T05:33:48.019Z,52.54
2023-05-06T05:36:19.453Z,52.30
2023-05-06T05:38:49.617Z,52.49
2023-05-06T05:41:19.671Z,52.55
2023-05-06T05:43:48.435Z,52.61
2023-05-06T05:46:19.054Z,52.65
2023-05-06T05:48:49.389Z,52.32
2023-05-06T05:51:20.218Z,52.64
2023-05-06T05:53:48.739Z,52.51
2023-05-06T05:56:18.057Z,52.59
2023-05-06T05:58:48.280Z,52.34
2023-05-06T06:01:17.451Z,52.33
2023-05-06T06:03:48.237Z,52.27
2023-05-06T06:06:16.902Z,52.61
2023-05-06T06:08:46.656Z,52.55
2023-05-06T06:12:03.874Z,52.65
2023-05-06T06:14:33.690Z,52.37
2023-05-06T06:17:02.573Z,52.62
2023-05-06T06:19:31.477Z,52.08
2023-05-06T06:21:59.961Z,51.69
2023-05-06T06:24:28.414Z,51.26
2023-05-06T06:26:58.247Z,51.05
2023-05-06T06:29:28.394Z,50.65
2023-05-06T06:31:58.178Z,50.20
2023-05-06T06:34:26.877Z,49.78
2023-05-06T06:36:55.629Z,49.40
2023-05-06T06:39:24.123Z,49.33
2023-05-06T06:41:52.566Z,48.65
2023-05-06T06:44:21.078Z,49.13
2023-05-06T06:46:50.903Z,49.01
2023-05-06T06:49:19.352Z,48.33
2023-05-06T06:51:47.901Z,48.53
2023-05-06T06:54:16.364Z,48.59
2023-05-06T06:56:44.904Z,48.46
2023-05-06T06:59:13.452Z,48.26
2023-05-06T07:01:43.093Z,48.29
2023-05-06T07:04:13.005Z,47.88
2023-05-06T07:06:41.514Z,47.77
2023-05-06T07:09:10.060Z,47.63
2023-05-06T07:11:38.485Z,47.44
2023-05-06T07:14:07.146Z,47.05
2023-05-06T07:16:35.746Z,47.15
2023-05-06T07:19:04.356Z,46.91
2023-05-06T07:21:34.228Z,47.04
2023-05-06T07:24:02.668Z,46.57
2023-05-06T07:26:31.129Z,46.50
2023-05-06T07:28:59.621Z,46.61
2023-05-06T07:31:28.184Z,46.45
2023-05-06T07:33:58.374Z,46.32
2023-05-06T07:36:28.651Z,46.45
2023-05-06T07:38:58.471Z,46.33
2023-05-06T07:41:27.287Z,46.40
2023-05-06T07:43:55.770Z,46.36
2023-05-06T07:46:24.408Z,46.34
2023-05-06T07:48:52.898Z,46.42
2023-05-06T07:51:21.739Z,46.49
2023-05-06T07:53:50.427Z,46.58
2023-05-06T07:56:20.287Z,46.81
2023-05-06T07:58:49.234Z,46.67
2023-05-06T08:01:17.662Z,46.97
2023-05-06T08:03:46.291Z,46.57
2023-05-06T08:06:14.805Z,46.75
2023-05-06T08:08:43.292Z,46.84
2023-05-06T08:11:11.759Z,46.88
2023-05-06T08:13:41.546Z,47.13
2023-05-06T08:16:10.187Z,47.50
2023-05-06T08:18:38.628Z,47.41
2023-05-06T08:21:07.049Z,47.57
2023-05-06T08:23:35.622Z,47.63
2023-05-06T08:26:04.145Z,47.61
2023-05-06T08:28:32.626Z,47.76
2023-05-06T08:31:02.529Z,48.07
2023-05-06T08:33:31.736Z,48.03
2023-05-06T08:36:00.241Z,48.54
2023-05-06T08:38:28.710Z,48.37
2023-05-06T08:41:00.835Z,48.76
2023-05-06T08:43:33.368Z,48.76
2023-05-06T08:46:03.507Z,48.74
2023-05-06T08:48:32.070Z,48.99
2023-05-06T08:51:04.583Z,48.89
2023-05-06T08:53:34.354Z,49.32
2023-05-06T08:56:05.043Z,49.42
2023-05-06T08:58:35.134Z,49.70
2023-05-06T09:01:05.603Z,49.66
2023-05-06T09:03:34.232Z,49.88
2023-05-06T09:06:02.807Z,49.88
2023-05-06T09:08:31.234Z,49.98
2023-05-06T09:10:59.671Z,49.94
2023-05-06T09:13:28.107Z,49.75
2023-05-06T09:15:56.623Z,49.99
2023-05-06T09:18:26.400Z,49.86
2023-05-06T09:20:54.829Z,50.10
2023-05-06T09:23:23.627Z,49.73
2023-05-06T09:25:52.129Z,50.02
2023-05-06T09:28:21.105Z,50.26
2023-05-06T09:30:51.925Z,50.03
2023-05-06T09:33:20.420Z,49.83
2023-05-06T09:35:50.186Z,49.98
2023-05-06T09:38:18.619Z,49.86
2023-05-06T09:40:46.995Z,50.21
2023-05-06T09:43:16.281Z,50.04
2023-05-06T09:45:46.199Z,50.49
2023-05-06T09:48:16.169Z,50.14
2023-05-06T09:50:45.327Z,50.19
2023-05-06T09:53:17.891Z,50.14
2023-05-06T09:55:47.604Z,50.44
2023-05-06T09:58:17.368Z,50.20
2023-05-06T10:00:46.641Z,50.48
2023-05-06T10:03:16.475Z,50.55
2023-05-06T10:05:46.935Z,50.58
2023-05-06T10:08:19.415Z,49.97
2023-05-06T10:10:50.460Z,50.50
2023-05-06T10:13:20.959Z,50.75
2023-05-06T10:15:50.860Z,50.71
2023-05-06T10:18:20.496Z,50.51
2023-05-06T10:20:50.092Z,50.51
2023-05-06T10:23:26.874Z,50.39
2023-05-06T10:25:57.915Z,50.64
2023-05-06T10:28:31.592Z,50.37
2023-05-06T10:31:00.852Z,50.64
2023-05-06T10:33:29.686Z,50.42
2023-05-06T10:36:08.557Z,50.91
2023-05-06T10:38:42.801Z,50.51
2023-05-06T10:41:12.135Z,50.68
2023-05-06T10:43:42.272Z,50.78
2023-05-06T10:46:12.726Z,51.07
2023-05-06T10:49:17.100Z,50.96
2023-05-06T10:51:49.337Z,51.03
2023-05-06T10:54:25.394Z,50.86
2023-05-06T10:57:10.095Z,50.59
2023-05-06T10:59:38.543Z,50.68
2023-05-06T11:02:10.503Z,50.96
2023-05-06T11:04:40.083Z,50.80
2023-05-06T11:07:10.692Z,50.79
2023-05-06T11:09:57.015Z,50.78
2023-05-06T11:12:47.366Z,51.01
2023-05-06T11:15:26.451Z,50.83
2023-05-06T11:17:55.952Z,50.82
2023-05-06T11:20:26.564Z,51.09
2023-05-06T11:22:55.448Z,51.30
2023-05-06T11:25:44.964Z,50.82
2023-05-06T11:28:14.683Z,51.14
2023-05-06T11:30:44.227Z,51.04
2023-05-06T11:33:19.451Z,50.93
2023-05-06T11:35:48.872Z,50.89
2023-05-06T11:38:17.357Z,51.14
2023-05-06T11:40:47.218Z,51.18
2023-05-06T11:43:16.675Z,51.15
2023-05-06T11:45:46.933Z,50.94
2023-05-06T11:48:16.066Z,50.93
2023-05-06T11:50:48.344Z,50.95
2023-05-06T11:53:20.015Z,51.04
2023-05-06T11:55:50.755Z,51.08
2023-05-06T11:58:22.174Z,51.43
2023-05-06T12:00:53.848Z,51.06
2023-05-06T12:03:23.193Z,51.12
2023-05-06T12:05:52.487Z,51.31
2023-05-06T12:08:27.970Z,51.16
2023-05-06T12:11:01.738Z,51.51
2023-05-06T12:13:31.129Z,51.48
2023-05-06T12:16:01.468Z,51.46
2023-05-06T12:18:30.915Z,51.13
2023-05-06T12:21:03.495Z,51.48
2023-05-06T12:23:32.211Z,51.32
2023-05-06T12:26:03.938Z,51.29
2023-05-06T12:28:34.458Z,51.61
2023-05-06T12:31:19.029Z,51.14
2023-05-06T12:33:48.993Z,51.56
2023-05-06T12:36:19.981Z,51.09
2023-05-06T12:38:52.754Z,51.12
2023-05-06T12:41:23.521Z,51.43
2023-05-06T12:43:52.754Z,51.54
2023-05-06T12:46:21.392Z,51.15
2023-05-06T12:49:00.591Z,51.29
2023-05-06T12:51:30.770Z,51.45
2023-05-06T12:53:59.422Z,51.09
2023-05-06T12:56:29.250Z,51.09
2023-05-06T12:58:59.367Z,51.28
2023-05-06T13:01:28.150Z,51.48
2023-05-06T13:03:58.196Z,51.12
2023-05-06T13:06:26.630Z,51.05
2023-05-06T13:08:55.094Z,51.30
2023-05-06T13:11:24.498Z,51.54
2023-05-06T13:13:54.375Z,51.11
2023-05-06T13:16:22.880Z,51.06
2023-05-06T13:18:52.009Z,51.78
2023-05-06T13:21:20.535Z,52.45
2023-05-06T13:23:49.032Z,51.96
2023-05-06T13:26:18.503Z,52.36
2023-05-06T13:28:47.362Z,52.51
2023-05-06T13:31:17.205Z,52.23
2023-05-06T13:33:45.690Z,51.99
2023-05-06T13:36:14.121Z,51.67
2023-05-06T13:38:42.620Z,51.92
2023-05-06T13:41:11.103Z,51.80
2023-05-06T13:43:39.638Z,52.27
2023-05-06T13:46:10.950Z,52.23
2023-05-06T13:48:40.998Z,51.97
2023-05-06T13:51:09.429Z,52.23
2023-05-06T13:53:39.452Z,52.55
2023-05-06T13:56:08.226Z,52.51
2023-05-06T13:58:36.709Z,52.04
2023-05-06T14:01:06.004Z,52.33
2023-05-06T14:03:34.521Z,52.07
2023-05-06T14:06:04.328Z,52.16
2023-05-06T14:08:32.973Z,52.08
2023-05-06T14:11:01.523Z,51.85
2023-05-06T14:13:32.820Z,52.22
2023-05-06T14:16:01.771Z,52.15
2023-05-06T14:18:31.687Z,52.09
2023-05-06T14:21:00.513Z,52.07
2023-05-06T14:23:30.349Z,52.23
2023-05-06T14:25:58.905Z,51.63
2023-05-06T14:28:27.423Z,51.78
2023-05-06T14:30:56.405Z,52.22
2023-05-06T14:33:24.830Z,52.08
2023-05-06T14:35:53.437Z,51.46
2023-05-06T14:38:21.819Z,50.72
2023-05-06T14:40:52.392Z,50.66
2023-05-06T14:43:20.895Z,50.50
2023-05-06T14:45:49.405Z,50.09
2023-05-06T14:48:18.040Z,49.74
2023-05-06T14:50:46.409Z,49.52
2023-05-06T14:53:14.780Z,49.66
2023-05-06T14:55:43.255Z,50.23
2023-05-06T14:58:13.049Z,49.95
2023-05-06T15:00:41.485Z,49.98
2023-05-06T15:03:09.968Z,50.02
2023-05-06T15:05:38.413Z,49.92
2023-05-06T15:08:07.280Z,50.00
2023-05-06T15:10:35.737Z,50.02
2023-05-06T15:13:04.178Z,50.18
2023-05-06T15:15:34.001Z,50.25
2023-05-06T15:18:02.573Z,47.41
2023-05-06T15:20:31.117Z,46.24
2023-05-06T15:22:59.561Z,46.85
2023-05-06T15:25:35.388Z,44.58
2023-05-06T15:28:05.548Z,46.77
2023-05-06T15:30:37.611Z,46.26
2023-05-06T15:33:06.447Z,45.83
2023-05-06T15:35:35.323Z,47.04
2023-05-06T15:38:05.030Z,46.81
2023-05-06T15:40:33.488Z,46.46
2023-05-06T15:43:01.985Z,43.00
2023-05-06T15:45:30.449Z,45.16
2023-05-06T15:48:00.315Z,44.73
2023-05-06T15:50:33.916Z,45.77
2023-05-06T15:53:03.388Z,44.77
2023-05-06T15:55:35.252Z,42.53
2023-05-06T15:58:12.119Z,44.63
2023-05-06T16:00:40.782Z,42.52
2023-05-06T16:03:12.168Z,42.88
2023-05-06T16:05:41.282Z,44.07
2023-05-06T16:08:09.764Z,43.72
2023-05-06T16:10:38.217Z,45.00
2023-05-06T16:13:06.777Z,43.73
2023-05-06T16:15:35.380Z,43.24
2023-05-06T16:18:03.993Z,42.75
2023-05-06T16:20:34.329Z,43.24
2023-05-06T16:23:02.890Z,43.95
2023-05-06T16:25:31.252Z,44.78
2023-05-06T16:27:59.664Z,44.69
2023-05-06T16:30:28.451Z,45.08
2023-05-06T16:32:57.047Z,45.21
2023-05-06T16:35:25.813Z,45.23
2023-05-06T16:37:55.606Z,45.51
2023-05-06T16:40:24.011Z,45.97
2023-05-06T16:42:52.397Z,45.66
2023-05-06T16:45:20.810Z,45.67
2023-05-06T16:47:49.461Z,46.17
2023-05-06T16:50:17.982Z,46.35
2023-05-06T16:52:46.424Z,46.58
2023-05-06T16:55:16.379Z,46.54
2023-05-06T16:57:44.827Z,46.60
2023-05-06T17:00:15.418Z,46.43
2023-05-06T17:02:43.975Z,46.61
2023-05-06T17:05:12.513Z,46.84
2023-05-06T17:07:40.993Z,46.62
2023-05-06T17:10:10.228Z,46.68
2023-05-06T17:12:41.537Z,46.81
2023-05-06T17:15:10.710Z,46.89
2023-05-06T17:17:40.635Z,47.26
2023-05-06T17:20:10.472Z,47.29
2023-05-06T17:22:39.112Z,46.95
2023-05-06T17:25:08.800Z,47.32
2023-05-06T17:27:37.210Z,47.06
2023-05-06T17:30:09.589Z,47.24
2023-05-06T17:32:38.327Z,47.31
2023-05-06T17:35:08.039Z,47.75
2023-05-06T17:37:36.495Z,47.64
2023-05-06T17:40:07.073Z,47.88
2023-05-06T17:42:36.155Z,47.61
2023-05-06T17:45:05.132Z,47.51
2023-05-06T17:47:35.984Z,47.63
2023-05-06T17:50:04.923Z,47.70
2023-05-06T17:52:33.430Z,47.92
2023-05-06T17:55:15.581Z,47.92
2023-05-06T17:57:45.341Z,48.28
2023-05-06T18:00:14.894Z,48.43
2023-05-06T18:02:45.753Z,48.54
2023-05-06T18:05:14.532Z,48.66
2023-05-06T18:07:42.966Z,48.95
2023-05-06T18:10:12.043Z,48.81
2023-05-06T18:12:40.528Z,48.96
2023-05-06T18:15:10.090Z,49.03
2023-05-06T18:17:38.778Z,48.96
2023-05-06T18:20:10.151Z,48.70
2023-05-06T18:22:38.956Z,48.77
2023-05-06T18:25:08.815Z,49.11
2023-05-06T18:27:37.491Z,49.07
2023-05-06T18:30:07.033Z,49.05
2023-05-06T18:32:35.929Z,48.86
2023-05-06T18:35:04.544Z,49.29
2023-05-06T18:37:34.896Z,49.35
2023-05-06T18:40:05.876Z,48.82
2023-05-06T18:42:35.531Z,48.93
2023-05-06T18:45:06.772Z,49.39
2023-05-06T18:47:36.907Z,48.97
2023-05-06T18:50:06.014Z,49.31
2023-05-06T18:52:37.480Z,49.28
2023-05-06T18:55:07.367Z,49.21
2023-05-06T18:57:35.860Z,49.03
2023-05-06T19:00:07.065Z,49.16
2023-05-06T19:02:35.645Z,49.29
2023-05-06T19:05:04.421Z,49.36
2023-05-06T19:07:32.888Z,49.29
2023-05-06T19:10:02.736Z,49.60
2023-05-06T19:12:31.454Z,49.57
2023-05-06T19:15:00.054Z,49.25
2023-05-06T19:17:28.614Z,49.63
2023-05-06T19:19:57.090Z,49.67
2023-05-06T19:22:25.769Z,49.53
2023-05-06T19:24:54.273Z,49.39
2023-05-06T19:27:24.586Z,49.96
2023-05-06T19:29:53.089Z,50.87
2023-05-06T19:32:21.903Z,51.92
2023-05-06T19:34:50.471Z,52.15
2023-05-06T19:37:18.898Z,52.21
2023-05-06T19:39:49.411Z,52.30
2023-05-06T19:42:17.959Z,52.58
2023-05-06T19:44:48.967Z,52.16
2023-05-06T19:47:17.435Z,52.12
2023-05-06T19:49:46.143Z,52.19
2023-05-06T19:52:14.687Z,52.09
2023-05-06T19:54:43.155Z,52.10
2023-05-06T19:57:11.681Z,51.65
2023-05-06T19:59:40.137Z,51.67
2023-05-06T20:02:13.353Z,51.85
2023-05-06T20:04:41.804Z,51.57
2023-05-06T20:07:10.741Z,51.86
2023-05-06T20:09:39.223Z,51.55
2023-05-06T20:12:07.986Z,51.88
2023-05-06T20:14:36.493Z,51.88
2023-05-06T20:17:04.993Z,51.30
2023-05-06T20:19:34.837Z,51.78
2023-05-06T20:22:03.258Z,51.58
2023-05-06T20:24:32.103Z,51.58
2023-05-06T20:27:00.530Z,51.34
2023-05-06T20:29:28.997Z,51.44
2023-05-06T20:31:57.590Z,51.35
2023-05-06T20:34:26.102Z,51.52
2023-05-06T20:36:56.131Z,51.25
2023-05-06T20:39:24.620Z,51.68
2023-05-06T20:41:53.076Z,51.56
2023-05-06T20:44:21.608Z,51.20
2023-05-06T20:46:50.131Z,51.25
2023-05-06T20:49:19.441Z,51.59
2023-05-06T20:51:47.892Z,51.26
2023-05-06T20:54:18.016Z,51.18
2023-05-06T20:56:46.604Z,51.33
2023-05-06T20:59:15.168Z,51.12
2023-05-06T21:01:43.838Z,51.55
2023-05-06T21:04:12.311Z,51.29
2023-05-06T21:06:40.847Z,51.35
2023-05-06T21:09:09.404Z,51.22
2023-05-06T21:11:39.392Z,51.20
2023-05-06T21:14:07.965Z,51.20
2023-05-06T21:16:37.100Z,51.14
2023-05-06T21:19:05.685Z,51.53
2023-05-06T21:21:34.220Z,51.15
2023-05-06T21:24:02.893Z,51.28
2023-05-06T21:26:31.515Z,51.36
2023-05-06T21:29:01.325Z,51.59
2023-05-06T21:31:30.123Z,51.46
2023-05-06T21:33:59.888Z,51.22
2023-05-06T21:36:28.507Z,51.13
2023-05-06T21:39:03.656Z,51.32
2023-05-06T21:41:32.150Z,51.26
2023-05-06T21:44:01.990Z,51.48
2023-05-06T21:46:31.027Z,51.11
2023-05-06T21:49:00.319Z,51.66
2023-05-06T21:51:32.251Z,51.26
2023-05-06T21:54:00.829Z,51.55
2023-05-06T21:56:29.723Z,51.34
2023-05-06T21:58:58.179Z,51.31
2023-05-06T22:01:29.073Z,51.64
2023-05-06T22:03:57.721Z,51.63
2023-05-06T22:06:26.441Z,51.15
2023-05-06T22:08:54.856Z,51.24
2023-05-06T22:11:24.698Z,51.58
2023-05-06T22:13:53.123Z,51.23
2023-05-06T22:16:21.567Z,51.47
2023-05-06T22:18:51.842Z,51.18
2023-05-06T22:21:20.260Z,51.44
2023-05-06T22:23:48.679Z,51.47
2023-05-06T22:26:17.082Z,51.24
2023-05-06T22:28:45.508Z,51.16
2023-05-06T22:31:14.385Z,51.53
2023-05-06T22:33:42.959Z,51.28
2023-05-06T22:36:12.695Z,51.26
2023-05-06T22:38:41.086Z,51.54
2023-05-06T22:41:09.478Z,51.37
2023-05-06T22:43:37.859Z,51.29
2023-05-06T22:46:06.323Z,51.29
2023-05-06T22:48:34.727Z,51.36
2023-05-06T22:51:03.272Z,51.64
2023-05-06T22:53:33.309Z,51.36
2023-05-06T22:56:01.676Z,51.65
2023-05-06T22:58:30.913Z,51.24
2023-05-06T23:00:59.326Z,51.62
2023-05-06T23:03:28.136Z,51.52
2023-05-06T23:05:56.741Z,51.39
2023-05-06T23:08:25.086Z,51.59
2023-05-06T23:10:54.781Z,51.30
2023-05-06T23:13:23.292Z,51.59
2023-05-06T23:15:51.856Z,51.27
2023-05-06T23:18:20.614Z,51.45
2023-05-06T23:20:49.122Z,51.32
2023-05-06T23:23:17.514Z,51.77
2023-05-06T23:25:45.941Z,51.52
2023-05-06T23:28:15.747Z,51.69
2023-05-06T23:30:44.355Z,51.65
2023-05-06T23:33:12.856Z,51.60
2023-05-06T23:35:41.278Z,51.80
2023-05-06T23:38:09.741Z,51.63
2023-05-06T23:40:38.268Z,51.68
2023-05-06T23:43:07.064Z,51.43
2023-05-06T23:45:36.957Z,51.81
2023-05-06T23:48:06.144Z,51.49
2023-05-06T23:50:34.665Z,51.29
2023-05-06T23:53:03.370Z,51.46
2023-05-06T23:55:32.127Z,51.84
2023-05-06T23:58:00.508Z,51.72
